sensor_id;sensor_type;location;lat;lon;timestamp;P1;durP1;ratioP1;P2;durP2;ratioP2
5297;SDS011;14738;42.668;23.250;2023-11-22T00:01:59;21.37;;;16.60;;
5297;SDS011;14738;42.668;23.250;2023-11-22T00:04:25;23.83;;;16.90;;
5297;SDS011;14738;42.668;23.250;2023-11-22T00:06:50;21.23;;;15.17;;
5297;SDS011;14738;42.668;23.250;2023-11-22T00:09:15;17.03;;;13.40;;
5297;SDS011;14738;42.668;23.250;2023-11-22T00:11:41;18.13;;;14.47;;
5297;SDS011;14738;42.668;23.250;2023-11-22T00:14:06;16.40;;;13.00;;
5297;SDS011;14738;42.668;23.250;2023-11-22T00:16:32;19.20;;;13.80;;
5297;SDS011;14738;42.668;23.250;2023-11-22T00:18:57;13.40;;;12.00;;
5297;SDS011;14738;42.668;23.250;2023-11-22T00:21:22;14.07;;;12.20;;
5297;SDS011;14738;42.668;23.250;2023-11-22T00:23:48;17.00;;;13.33;;
5297;SDS011;14738;42.668;23.250;2023-11-22T00:26:13;18.30;;;15.50;;
5297;SDS011;14738;42.668;23.250;2023-11-22T00:28:40;18.03;;;14.53;;
5297;SDS011;14738;42.668;23.250;2023-11-22T00:31:05;18.63;;;14.57;;
5297;SDS011;14738;42.668;23.250;2023-11-22T00:33:31;20.07;;;14.40;;
5297;SDS011;14738;42.668;23.250;2023-11-22T00:35:56;18.40;;;14.00;;
5297;SDS011;14738;42.668;23.250;2023-11-22T00:38:23;17.30;;;14.20;;
5297;SDS011;14738;42.668;23.250;2023-11-22T00:40:49;18.33;;;15.47;;
5297;SDS011;14738;42.668;23.250;2023-11-22T00:43:15;16.97;;;13.50;;
5297;SDS011;14738;42.668;23.250;2023-11-22T00:45:40;17.77;;;13.93;;
5297;SDS011;14738;42.668;23.250;2023-11-22T00:48:06;16.27;;;13.20;;
5297;SDS011;14738;42.668;23.250;2023-11-22T00:50:31;19.40;;;14.20;;
5297;SDS011;14738;42.668;23.250;2023-11-22T00:52:56;18.77;;;14.00;;
5297;SDS011;14738;42.668;23.250;2023-11-22T00:55:22;16.50;;;14.80;;
5297;SDS011;14738;42.668;23.250;2023-11-22T00:57:47;19.30;;;13.90;;
5297;SDS011;14738;42.668;23.250;2023-11-22T01:00:13;15.67;;;13.27;;
5297;SDS011;14738;42.668;23.250;2023-11-22T01:02:40;21.07;;;13.93;;
5297;SDS011;14738;42.668;23.250;2023-11-22T01:05:06;15.90;;;12.10;;
5297;SDS011;14738;42.668;23.250;2023-11-22T01:07:38;16.97;;;13.50;;
5297;SDS011;14738;42.668;23.250;2023-11-22T01:10:03;21.67;;;15.47;;
5297;SDS011;14738;42.668;23.250;2023-11-22T01:12:30;21.77;;;16.50;;
5297;SDS011;14738;42.668;23.250;2023-11-22T01:14:56;17.70;;;15.00;;
5297;SDS011;14738;42.668;23.250;2023-11-22T01:17:21;25.43;;;16.07;;
5297;SDS011;14738;42.668;23.250;2023-11-22T01:19:47;19.57;;;14.67;;
5297;SDS011;14738;42.668;23.250;2023-11-22T01:22:12;22.27;;;15.47;;
5297;SDS011;14738;42.668;23.250;2023-11-22T01:24:37;20.13;;;15.03;;
5297;SDS011;14738;42.668;23.250;2023-11-22T01:27:03;19.67;;;15.00;;
5297;SDS011;14738;42.668;23.250;2023-11-22T01:29:30;19.00;;;14.67;;
5297;SDS011;14738;42.668;23.250;2023-11-22T01:31:55;21.23;;;13.47;;
5297;SDS011;14738;42.668;23.250;2023-11-22T01:34:21;16.43;;;13.80;;
5297;SDS011;14738;42.668;23.250;2023-11-22T01:36:48;16.30;;;13.60;;
5297;SDS011;14738;42.668;23.250;2023-11-22T01:39:15;20.53;;;14.67;;
5297;SDS011;14738;42.668;23.250;2023-11-22T01:41:40;19.47;;;14.77;;
5297;SDS011;14738;42.668;23.250;2023-11-22T01:44:09;20.53;;;14.00;;
5297;SDS011;14738;42.668;23.250;2023-11-22T01:46:34;21.03;;;13.33;;
5297;SDS011;14738;42.668;23.250;2023-11-22T01:49:00;16.57;;;12.90;;
5297;SDS011;14738;42.668;23.250;2023-11-22T01:51:26;19.17;;;13.90;;
5297;SDS011;14738;42.668;23.250;2023-11-22T01:53:53;19.00;;;15.07;;
5297;SDS011;14738;42.668;23.250;2023-11-22T01:56:21;17.97;;;12.83;;
5297;SDS011;14738;42.668;23.250;2023-11-22T01:58:48;14.00;;;10.43;;
5297;SDS011;14738;42.668;23.250;2023-11-22T02:01:14;14.93;;;11.40;;
5297;SDS011;14738;42.668;23.250;2023-11-22T02:03:40;16.13;;;11.83;;
5297;SDS011;14738;42.668;23.250;2023-11-22T02:06:06;16.30;;;11.20;;
5297;SDS011;14738;42.668;23.250;2023-11-22T02:08:34;12.80;;;11.10;;
5297;SDS011;14738;42.668;23.250;2023-11-22T02:11:00;18.83;;;12.43;;
5297;SDS011;14738;42.668;23.250;2023-11-22T02:13:32;20.57;;;13.93;;
5297;SDS011;14738;42.668;23.250;2023-11-22T02:15:57;15.10;;;11.60;;
5297;SDS011;14738;42.668;23.250;2023-11-22T02:18:27;19.23;;;13.70;;
5297;SDS011;14738;42.668;23.250;2023-11-22T02:20:53;18.43;;;12.70;;
5297;SDS011;14738;42.668;23.250;2023-11-22T02:23:18;17.70;;;13.63;;
5297;SDS011;14738;42.668;23.250;2023-11-22T02:25:44;17.23;;;13.47;;
5297;SDS011;14738;42.668;23.250;2023-11-22T02:28:10;16.50;;;11.87;;
5297;SDS011;14738;42.668;23.250;2023-11-22T02:30:37;14.57;;;11.93;;
5297;SDS011;14738;42.668;23.250;2023-11-22T02:33:02;19.00;;;11.83;;
5297;SDS011;14738;42.668;23.250;2023-11-22T02:35:29;21.70;;;12.57;;
5297;SDS011;14738;42.668;23.250;2023-11-22T02:37:56;13.43;;;11.83;;
5297;SDS011;14738;42.668;23.250;2023-11-22T02:40:22;18.70;;;15.03;;
5297;SDS011;14738;42.668;23.250;2023-11-22T02:42:48;19.97;;;14.13;;
5297;SDS011;14738;42.668;23.250;2023-11-22T02:45:15;23.87;;;14.87;;
5297;SDS011;14738;42.668;23.250;2023-11-22T02:47:43;15.60;;;13.43;;
5297;SDS011;14738;42.668;23.250;2023-11-22T02:50:09;17.30;;;13.20;;
5297;SDS011;14738;42.668;23.250;2023-11-22T02:52:36;18.30;;;13.47;;
5297;SDS011;14738;42.668;23.250;2023-11-22T02:55:02;23.40;;;15.60;;
5297;SDS011;14738;42.668;23.250;2023-11-22T02:57:30;18.53;;;14.57;;
5297;SDS011;14738;42.668;23.250;2023-11-22T02:59:56;18.90;;;13.80;;
5297;SDS011;14738;42.668;23.250;2023-11-22T03:02:22;16.53;;;12.80;;
5297;SDS011;14738;42.668;23.250;2023-11-22T03:04:47;17.13;;;13.80;;
5297;SDS011;14738;42.668;23.250;2023-11-22T03:07:13;21.40;;;14.80;;
5297;SDS011;14738;42.668;23.250;2023-11-22T03:09:38;14.63;;;10.70;;
5297;SDS011;14738;42.668;23.250;2023-11-22T03:12:04;16.27;;;13.43;;
5297;SDS011;14738;42.668;23.250;2023-11-22T03:14:31;18.40;;;13.17;;
5297;SDS011;14738;42.668;23.250;2023-11-22T03:16:56;15.77;;;11.97;;
5297;SDS011;14738;42.668;23.250;2023-11-22T03:19:22;17.00;;;12.73;;
5297;SDS011;14738;42.668;23.250;2023-11-22T03:21:49;16.77;;;13.10;;
5297;SDS011;14738;42.668;23.250;2023-11-22T03:24:14;16.50;;;12.37;;
5297;SDS011;14738;42.668;23.250;2023-11-22T03:26:41;16.97;;;13.73;;
5297;SDS011;14738;42.668;23.250;2023-11-22T03:29:06;17.20;;;13.50;;
5297;SDS011;14738;42.668;23.250;2023-11-22T03:31:31;16.17;;;12.20;;
5297;SDS011;14738;42.668;23.250;2023-11-22T03:33:57;18.40;;;13.90;;
5297;SDS011;14738;42.668;23.250;2023-11-22T03:36:23;16.97;;;13.07;;
5297;SDS011;14738;42.668;23.250;2023-11-22T03:38:49;20.87;;;13.10;;
5297;SDS011;14738;42.668;23.250;2023-11-22T03:41:15;18.10;;;12.50;;
5297;SDS011;14738;42.668;23.250;2023-11-22T03:43:42;21.67;;;13.40;;
5297;SDS011;14738;42.668;23.250;2023-11-22T03:46:08;20.77;;;15.13;;
5297;SDS011;14738;42.668;23.250;2023-11-22T03:48:33;17.07;;;13.40;;
5297;SDS011;14738;42.668;23.250;2023-11-22T03:50:59;19.63;;;13.23;;
5297;SDS011;14738;42.668;23.250;2023-11-22T03:53:24;19.37;;;13.73;;
5297;SDS011;14738;42.668;23.250;2023-11-22T03:55:51;27.00;;;19.70;;
5297;SDS011;14738;42.668;23.250;2023-11-22T03:58:17;30.00;;;24.13;;
5297;SDS011;14738;42.668;23.250;2023-11-22T04:00:43;18.73;;;15.10;;
5297;SDS011;14738;42.668;23.250;2023-11-22T04:03:08;13.87;;;12.13;;
5297;SDS011;14738;42.668;23.250;2023-11-22T04:05:34;16.30;;;13.10;;
5297;SDS011;14738;42.668;23.250;2023-11-22T04:07:59;15.03;;;12.53;;
5297;SDS011;14738;42.668;23.250;2023-11-22T04:10:24;16.90;;;14.87;;
5297;SDS011;14738;42.668;23.250;2023-11-22T04:12:50;15.23;;;13.30;;
5297;SDS011;14738;42.668;23.250;2023-11-22T04:15:15;19.10;;;16.20;;
5297;SDS011;14738;42.668;23.250;2023-11-22T04:17:41;21.00;;;15.50;;
5297;SDS011;14738;42.668;23.250;2023-11-22T04:20:07;21.50;;;14.27;;
5297;SDS011;14738;42.668;23.250;2023-11-22T04:22:40;15.73;;;12.87;;
5297;SDS011;14738;42.668;23.250;2023-11-22T04:25:06;16.63;;;12.33;;
5297;SDS011;14738;42.668;23.250;2023-11-22T04:27:33;12.43;;;11.10;;
5297;SDS011;14738;42.668;23.250;2023-11-22T04:29:59;15.20;;;13.00;;
5297;SDS011;14738;42.668;23.250;2023-11-22T04:32:25;27.80;;;17.23;;
5297;SDS011;14738;42.668;23.250;2023-11-22T04:34:50;14.73;;;11.23;;
5297;SDS011;14738;42.668;23.250;2023-11-22T04:37:16;12.40;;;9.90;;
5297;SDS011;14738;42.668;23.250;2023-11-22T04:39:41;14.20;;;10.23;;
5297;SDS011;14738;42.668;23.250;2023-11-22T04:42:06;16.07;;;11.03;;
5297;SDS011;14738;42.668;23.250;2023-11-22T04:44:32;11.73;;;10.53;;
5297;SDS011;14738;42.668;23.250;2023-11-22T04:46:57;13.20;;;10.23;;
5297;SDS011;14738;42.668;23.250;2023-11-22T04:49:26;14.83;;;11.40;;
5297;SDS011;14738;42.668;23.250;2023-11-22T04:51:52;15.97;;;13.00;;
5297;SDS011;14738;42.668;23.250;2023-11-22T04:54:17;17.07;;;13.10;;
5297;SDS011;14738;42.668;23.250;2023-11-22T04:56:45;16.63;;;12.00;;
5297;SDS011;14738;42.668;23.250;2023-11-22T04:59:11;18.17;;;12.47;;
5297;SDS011;14738;42.668;23.250;2023-11-22T05:01:37;16.83;;;13.67;;
5297;SDS011;14738;42.668;23.250;2023-11-22T05:04:02;17.67;;;13.03;;
5297;SDS011;14738;42.668;23.250;2023-11-22T05:06:27;20.63;;;15.77;;
5297;SDS011;14738;42.668;23.250;2023-11-22T05:08:54;19.00;;;14.50;;
5297;SDS011;14738;42.668;23.250;2023-11-22T05:11:20;23.20;;;15.30;;
5297;SDS011;14738;42.668;23.250;2023-11-22T05:13:45;23.37;;;16.97;;
5297;SDS011;14738;42.668;23.250;2023-11-22T05:16:11;22.40;;;17.17;;
5297;SDS011;14738;42.668;23.250;2023-11-22T05:18:36;21.37;;;17.10;;
5297;SDS011;14738;42.668;23.250;2023-11-22T05:21:02;23.00;;;18.00;;
5297;SDS011;14738;42.668;23.250;2023-11-22T05:23:29;20.50;;;16.70;;
5297;SDS011;14738;42.668;23.250;2023-11-22T05:25:54;25.10;;;18.70;;
5297;SDS011;14738;42.668;23.250;2023-11-22T05:28:21;26.20;;;18.43;;
5297;SDS011;14738;42.668;23.250;2023-11-22T05:30:47;26.17;;;19.40;;
5297;SDS011;14738;42.668;23.250;2023-11-22T05:33:12;24.53;;;18.60;;
5297;SDS011;14738;42.668;23.250;2023-11-22T05:35:38;30.00;;;21.20;;
5297;SDS011;14738;42.668;23.250;2023-11-22T05:38:03;28.10;;;20.63;;
5297;SDS011;14738;42.668;23.250;2023-11-22T05:40:29;28.53;;;19.73;;
5297;SDS011;14738;42.668;23.250;2023-11-22T05:42:54;29.80;;;21.00;;
5297;SDS011;14738;42.668;23.250;2023-11-22T05:45:19;28.53;;;20.00;;
5297;SDS011;14738;42.668;23.250;2023-11-22T05:47:45;28.33;;;20.67;;
5297;SDS011;14738;42.668;23.250;2023-11-22T05:50:11;25.00;;;19.37;;
5297;SDS011;14738;42.668;23.250;2023-11-22T05:52:37;23.70;;;18.13;;
5297;SDS011;14738;42.668;23.250;2023-11-22T05:55:02;22.63;;;18.30;;
5297;SDS011;14738;42.668;23.250;2023-11-22T05:57:31;24.47;;;19.37;;
5297;SDS011;14738;42.668;23.250;2023-11-22T05:59:56;25.47;;;19.03;;
5297;SDS011;14738;42.668;23.250;2023-11-22T06:02:22;25.60;;;19.70;;
5297;SDS011;14738;42.668;23.250;2023-11-22T06:04:47;28.37;;;20.20;;
5297;SDS011;14738;42.668;23.250;2023-11-22T06:07:13;32.93;;;20.90;;
5297;SDS011;14738;42.668;23.250;2023-11-22T06:09:38;31.27;;;22.30;;
5297;SDS011;14738;42.668;23.250;2023-11-22T06:12:05;30.50;;;21.63;;
5297;SDS011;14738;42.668;23.250;2023-11-22T06:14:30;28.43;;;21.30;;
5297;SDS011;14738;42.668;23.250;2023-11-22T06:16:56;27.53;;;21.60;;
5297;SDS011;14738;42.668;23.250;2023-11-22T06:19:21;28.30;;;19.87;;
5297;SDS011;14738;42.668;23.250;2023-11-22T06:21:46;28.50;;;22.47;;
5297;SDS011;14738;42.668;23.250;2023-11-22T06:24:12;25.90;;;21.07;;
5297;SDS011;14738;42.668;23.250;2023-11-22T06:26:41;25.03;;;19.60;;
5297;SDS011;14738;42.668;23.250;2023-11-22T06:29:11;26.60;;;19.73;;
5297;SDS011;14738;42.668;23.250;2023-11-22T06:31:36;32.83;;;25.53;;
5297;SDS011;14738;42.668;23.250;2023-11-22T06:34:02;25.63;;;21.80;;
5297;SDS011;14738;42.668;23.250;2023-11-22T06:36:27;27.47;;;21.93;;
5297;SDS011;14738;42.668;23.250;2023-11-22T06:38:54;25.40;;;21.57;;
5297;SDS011;14738;42.668;23.250;2023-11-22T06:41:20;25.83;;;21.17;;
5297;SDS011;14738;42.668;23.250;2023-11-22T06:43:46;30.63;;;20.57;;
5297;SDS011;14738;42.668;23.250;2023-11-22T06:46:12;25.03;;;19.50;;
5297;SDS011;14738;42.668;23.250;2023-11-22T06:48:38;25.17;;;20.93;;
5297;SDS011;14738;42.668;23.250;2023-11-22T06:51:03;28.50;;;20.30;;
5297;SDS011;14738;42.668;23.250;2023-11-22T06:53:29;29.03;;;22.67;;
5297;SDS011;14738;42.668;23.250;2023-11-22T06:55:54;34.70;;;24.80;;
5297;SDS011;14738;42.668;23.250;2023-11-22T06:58:20;31.60;;;25.33;;
5297;SDS011;14738;42.668;23.250;2023-11-22T07:00:45;30.30;;;24.30;;
5297;SDS011;14738;42.668;23.250;2023-11-22T07:03:10;26.53;;;21.50;;
5297;SDS011;14738;42.668;23.250;2023-11-22T07:05:37;28.03;;;21.23;;
5297;SDS011;14738;42.668;23.250;2023-11-22T07:08:03;38.03;;;26.73;;
5297;SDS011;14738;42.668;23.250;2023-11-22T07:10:29;60.63;;;34.03;;
5297;SDS011;14738;42.668;23.250;2023-11-22T07:12:59;43.37;;;26.10;;
5297;SDS011;14738;42.668;23.250;2023-11-22T07:15:26;35.50;;;24.50;;
5297;SDS011;14738;42.668;23.250;2023-11-22T07:17:52;31.80;;;22.40;;
5297;SDS011;14738;42.668;23.250;2023-11-22T07:20:17;28.93;;;22.40;;
5297;SDS011;14738;42.668;23.250;2023-11-22T07:22:43;35.83;;;23.30;;
5297;SDS011;14738;42.668;23.250;2023-11-22T07:25:09;28.60;;;22.20;;
5297;SDS011;14738;42.668;23.250;2023-11-22T07:27:45;26.23;;;21.50;;
5297;SDS011;14738;42.668;23.250;2023-11-22T07:30:15;24.40;;;20.47;;
5297;SDS011;14738;42.668;23.250;2023-11-22T07:32:41;22.93;;;19.27;;
5297;SDS011;14738;42.668;23.250;2023-11-22T07:35:07;26.73;;;20.77;;
5297;SDS011;14738;42.668;23.250;2023-11-22T07:37:36;27.43;;;21.63;;
5297;SDS011;14738;42.668;23.250;2023-11-22T07:40:07;27.50;;;21.77;;
5297;SDS011;14738;42.668;23.250;2023-11-22T07:42:35;30.80;;;22.30;;
5297;SDS011;14738;42.668;23.250;2023-11-22T07:45:01;25.30;;;19.17;;
5297;SDS011;14738;42.668;23.250;2023-11-22T07:47:27;32.50;;;20.33;;
5297;SDS011;14738;42.668;23.250;2023-11-22T07:49:54;28.40;;;21.60;;
5297;SDS011;14738;42.668;23.250;2023-11-22T07:52:20;26.80;;;21.50;;
5297;SDS011;14738;42.668;23.250;2023-11-22T07:54:46;24.33;;;20.80;;
5297;SDS011;14738;42.668;23.250;2023-11-22T07:57:12;28.03;;;21.10;;
5297;SDS011;14738;42.668;23.250;2023-11-22T07:59:38;26.47;;;19.30;;
5297;SDS011;14738;42.668;23.250;2023-11-22T08:02:04;24.70;;;19.77;;
5297;SDS011;14738;42.668;23.250;2023-11-22T08:04:36;28.90;;;20.67;;
5297;SDS011;14738;42.668;23.250;2023-11-22T08:07:01;31.43;;;23.40;;
5297;SDS011;14738;42.668;23.250;2023-11-22T08:09:27;32.03;;;23.97;;
5297;SDS011;14738;42.668;23.250;2023-11-22T08:11:57;28.20;;;22.50;;
5297;SDS011;14738;42.668;23.250;2023-11-22T08:14:23;30.20;;;22.13;;
5297;SDS011;14738;42.668;23.250;2023-11-22T08:16:50;25.47;;;21.20;;
5297;SDS011;14738;42.668;23.250;2023-11-22T08:19:16;25.33;;;20.73;;
5297;SDS011;14738;42.668;23.250;2023-11-22T08:21:41;24.47;;;20.40;;
5297;SDS011;14738;42.668;23.250;2023-11-22T08:24:07;20.60;;;17.80;;
5297;SDS011;14738;42.668;23.250;2023-11-22T08:26:33;21.77;;;18.57;;
5297;SDS011;14738;42.668;23.250;2023-11-22T08:28:58;21.57;;;17.60;;
5297;SDS011;14738;42.668;23.250;2023-11-22T08:31:23;20.00;;;14.30;;
5297;SDS011;14738;42.668;23.250;2023-11-22T08:33:49;16.93;;;15.07;;
5297;SDS011;14738;42.668;23.250;2023-11-22T08:36:14;19.30;;;15.30;;
5297;SDS011;14738;42.668;23.250;2023-11-22T08:38:40;20.53;;;17.13;;
5297;SDS011;14738;42.668;23.250;2023-11-22T08:41:09;30.33;;;22.90;;
5297;SDS011;14738;42.668;23.250;2023-11-22T08:43:38;24.60;;;20.30;;
5297;SDS011;14738;42.668;23.250;2023-11-22T08:46:04;22.97;;;17.23;;
5297;SDS011;14738;42.668;23.250;2023-11-22T08:48:30;23.60;;;18.90;;
5297;SDS011;14738;42.668;23.250;2023-11-22T08:50:55;22.53;;;18.37;;
5297;SDS011;14738;42.668;23.250;2023-11-22T08:53:22;29.10;;;20.77;;
5297;SDS011;14738;42.668;23.250;2023-11-22T08:55:48;28.37;;;21.90;;
5297;SDS011;14738;42.668;23.250;2023-11-22T08:58:13;27.13;;;21.93;;
5297;SDS011;14738;42.668;23.250;2023-11-22T09:00:39;27.57;;;21.83;;
5297;SDS011;14738;42.668;23.250;2023-11-22T09:03:06;29.70;;;21.80;;
5297;SDS011;14738;42.668;23.250;2023-11-22T09:05:32;29.10;;;22.53;;
5297;SDS011;14738;42.668;23.250;2023-11-22T09:07:58;26.00;;;21.60;;
5297;SDS011;14738;42.668;23.250;2023-11-22T09:10:26;24.40;;;21.07;;
5297;SDS011;14738;42.668;23.250;2023-11-22T09:12:52;26.40;;;18.77;;
5297;SDS011;14738;42.668;23.250;2023-11-22T09:15:18;21.63;;;19.10;;
5297;SDS011;14738;42.668;23.250;2023-11-22T09:17:51;21.20;;;19.00;;
5297;SDS011;14738;42.668;23.250;2023-11-22T09:20:18;26.03;;;20.20;;
5297;SDS011;14738;42.668;23.250;2023-11-22T09:22:45;28.13;;;21.63;;
5297;SDS011;14738;42.668;23.250;2023-11-22T09:25:21;25.73;;;18.83;;
5297;SDS011;14738;42.668;23.250;2023-11-22T09:27:49;26.70;;;19.53;;
5297;SDS011;14738;42.668;23.250;2023-11-22T09:30:18;23.73;;;18.30;;
5297;SDS011;14738;42.668;23.250;2023-11-22T09:35:30;24.47;;;18.60;;
5297;SDS011;14738;42.668;23.250;2023-11-22T09:38:00;22.57;;;18.23;;
5297;SDS011;14738;42.668;23.250;2023-11-22T09:40:42;23.47;;;17.63;;
5297;SDS011;14738;42.668;23.250;2023-11-22T09:43:10;23.70;;;18.80;;
5297;SDS011;14738;42.668;23.250;2023-11-22T09:45:36;17.43;;;13.87;;
5297;SDS011;14738;42.668;23.250;2023-11-22T09:48:14;14.33;;;12.73;;
5297;SDS011;14738;42.668;23.250;2023-11-22T09:56:01;23.87;;;17.20;;
5297;SDS011;14738;42.668;23.250;2023-11-22T09:58:31;19.00;;;16.33;;
5297;SDS011;14738;42.668;23.250;2023-11-22T10:00:59;22.60;;;15.80;;
5297;SDS011;14738;42.668;23.250;2023-11-22T10:03:28;20.63;;;17.43;;
5297;SDS011;14738;42.668;23.250;2023-11-22T10:05:58;21.20;;;17.13;;
5297;SDS011;14738;42.668;23.250;2023-11-22T10:08:25;19.47;;;16.53;;
5297;SDS011;14738;42.668;23.250;2023-11-22T10:10:53;26.03;;;17.77;;
5297;SDS011;14738;42.668;23.250;2023-11-22T10:13:19;20.70;;;14.90;;
5297;SDS011;14738;42.668;23.250;2023-11-22T10:15:49;24.10;;;20.50;;
5297;SDS011;14738;42.668;23.250;2023-11-22T10:18:15;16.30;;;13.20;;
5297;SDS011;14738;42.668;23.250;2023-11-22T10:20:42;17.40;;;14.10;;
5297;SDS011;14738;42.668;23.250;2023-11-22T10:23:11;18.27;;;15.00;;
5297;SDS011;14738;42.668;23.250;2023-11-22T10:25:44;21.37;;;15.33;;
5297;SDS011;14738;42.668;23.250;2023-11-22T10:28:12;15.63;;;13.37;;
5297;SDS011;14738;42.668;23.250;2023-11-22T10:30:38;20.77;;;17.07;;
5297;SDS011;14738;42.668;23.250;2023-11-22T10:33:05;19.83;;;15.13;;
5297;SDS011;14738;42.668;23.250;2023-11-22T10:35:31;20.00;;;16.00;;
5297;SDS011;14738;42.668;23.250;2023-11-22T10:37:58;25.53;;;18.00;;
5297;SDS011;14738;42.668;23.250;2023-11-22T10:40:28;23.20;;;16.30;;
5297;SDS011;14738;42.668;23.250;2023-11-22T10:42:54;18.20;;;16.00;;
5297;SDS011;14738;42.668;23.250;2023-11-22T10:45:21;19.90;;;16.10;;
5297;SDS011;14738;42.668;23.250;2023-11-22T10:47:48;19.90;;;15.07;;
5297;SDS011;14738;42.668;23.250;2023-11-22T10:50:14;18.53;;;15.83;;
5297;SDS011;14738;42.668;23.250;2023-11-22T10:52:41;19.43;;;15.87;;
5297;SDS011;14738;42.668;23.250;2023-11-22T10:55:11;19.03;;;17.03;;
5297;SDS011;14738;42.668;23.250;2023-11-22T10:57:43;25.90;;;19.57;;
5297;SDS011;14738;42.668;23.250;2023-11-22T11:00:13;26.90;;;19.97;;
5297;SDS011;14738;42.668;23.250;2023-11-22T11:02:40;21.30;;;16.67;;
5297;SDS011;14738;42.668;23.250;2023-11-22T11:05:17;21.90;;;18.50;;
5297;SDS011;14738;42.668;23.250;2023-11-22T11:07:49;22.50;;;17.60;;
5297;SDS011;14738;42.668;23.250;2023-11-22T11:10:20;22.50;;;18.33;;
5297;SDS011;14738;42.668;23.250;2023-11-22T11:12:46;22.50;;;18.83;;
5297;SDS011;14738;42.668;23.250;2023-11-22T11:15:11;22.23;;;18.97;;
5297;SDS011;14738;42.668;23.250;2023-11-22T11:17:38;21.17;;;18.27;;
5297;SDS011;14738;42.668;23.250;2023-11-22T11:20:05;22.03;;;19.40;;
5297;SDS011;14738;42.668;23.250;2023-11-22T11:22:32;26.73;;;20.00;;
5297;SDS011;14738;42.668;23.250;2023-11-22T11:25:04;24.53;;;19.83;;
5297;SDS011;14738;42.668;23.250;2023-11-22T11:27:32;23.33;;;19.67;;
5297;SDS011;14738;42.668;23.250;2023-11-22T11:30:00;23.10;;;19.63;;
5297;SDS011;14738;42.668;23.250;2023-11-22T11:32:32;24.37;;;19.77;;
5297;SDS011;14738;42.668;23.250;2023-11-22T11:34:58;26.47;;;19.10;;
5297;SDS011;14738;42.668;23.250;2023-11-22T11:37:28;24.37;;;19.77;;
5297;SDS011;14738;42.668;23.250;2023-11-22T11:39:54;25.10;;;20.87;;
5297;SDS011;14738;42.668;23.250;2023-11-22T11:42:19;27.10;;;20.37;;
5297;SDS011;14738;42.668;23.250;2023-11-22T11:44:52;24.40;;;20.90;;
5297;SDS011;14738;42.668;23.250;2023-11-22T11:47:28;23.33;;;20.23;;
5297;SDS011;14738;42.668;23.250;2023-11-22T11:49:57;26.87;;;22.13;;
5297;SDS011;14738;42.668;23.250;2023-11-22T11:52:24;25.73;;;23.00;;
5297;SDS011;14738;42.668;23.250;2023-11-22T11:54:50;26.77;;;22.30;;
5297;SDS011;14738;42.668;23.250;2023-11-22T11:57:16;29.30;;;22.53;;
5297;SDS011;14738;42.668;23.250;2023-11-22T11:59:42;25.30;;;22.60;;
5297;SDS011;14738;42.668;23.250;2023-11-22T12:02:08;28.23;;;22.43;;
5297;SDS011;14738;42.668;23.250;2023-11-22T12:04:33;28.60;;;22.30;;
5297;SDS011;14738;42.668;23.250;2023-11-22T12:06:59;24.67;;;21.73;;
5297;SDS011;14738;42.668;23.250;2023-11-22T12:09:24;26.70;;;21.60;;
5297;SDS011;14738;42.668;23.250;2023-11-22T12:11:54;25.33;;;20.67;;
5297;SDS011;14738;42.668;23.250;2023-11-22T12:14:20;28.30;;;22.37;;
5297;SDS011;14738;42.668;23.250;2023-11-22T12:16:47;28.60;;;21.60;;
5297;SDS011;14738;42.668;23.250;2023-11-22T12:19:21;27.67;;;21.63;;
5297;SDS011;14738;42.668;23.250;2023-11-22T12:21:48;27.30;;;22.17;;
5297;SDS011;14738;42.668;23.250;2023-11-22T12:24:14;27.07;;;21.07;;
5297;SDS011;14738;42.668;23.250;2023-11-22T12:26:44;23.70;;;19.13;;
5297;SDS011;14738;42.668;23.250;2023-11-22T12:29:16;29.00;;;23.17;;
5297;SDS011;14738;42.668;23.250;2023-11-22T12:31:45;28.23;;;22.57;;
5297;SDS011;14738;42.668;23.250;2023-11-22T12:34:14;27.80;;;24.47;;
5297;SDS011;14738;42.668;23.250;2023-11-22T12:36:40;37.73;;;30.63;;
5297;SDS011;14738;42.668;23.250;2023-11-22T12:39:09;39.53;;;32.13;;
5297;SDS011;14738;42.668;23.250;2023-11-22T12:41:41;49.43;;;36.00;;
5297;SDS011;14738;42.668;23.250;2023-11-22T12:44:10;40.67;;;32.73;;
5297;SDS011;14738;42.668;23.250;2023-11-22T12:49:13;40.13;;;31.97;;
5297;SDS011;14738;42.668;23.250;2023-11-22T12:51:45;44.87;;;31.77;;
5297;SDS011;14738;42.668;23.250;2023-11-22T12:54:11;35.97;;;29.67;;
5297;SDS011;14738;42.668;23.250;2023-11-22T12:56:36;36.23;;;29.53;;
5297;SDS011;14738;42.668;23.250;2023-11-22T12:59:02;37.90;;;27.90;;
5297;SDS011;14738;42.668;23.250;2023-11-22T13:01:28;34.23;;;24.07;;
5297;SDS011;14738;42.668;23.250;2023-11-22T13:03:54;30.77;;;21.97;;
5297;SDS011;14738;42.668;23.250;2023-11-22T13:06:19;27.00;;;23.23;;
5297;SDS011;14738;42.668;23.250;2023-11-22T13:08:44;30.87;;;23.97;;
5297;SDS011;14738;42.668;23.250;2023-11-22T13:11:10;28.87;;;23.40;;
5297;SDS011;14738;42.668;23.250;2023-11-22T13:13:35;30.03;;;22.80;;
5297;SDS011;14738;42.668;23.250;2023-11-22T13:16:01;28.80;;;22.37;;
5297;SDS011;14738;42.668;23.250;2023-11-22T13:18:26;28.37;;;23.43;;
5297;SDS011;14738;42.668;23.250;2023-11-22T13:20:52;30.60;;;23.30;;
5297;SDS011;14738;42.668;23.250;2023-11-22T13:23:17;30.83;;;23.10;;
5297;SDS011;14738;42.668;23.250;2023-11-22T13:25:43;27.47;;;22.70;;
5297;SDS011;14738;42.668;23.250;2023-11-22T13:28:09;31.07;;;23.03;;
5297;SDS011;14738;42.668;23.250;2023-11-22T13:30:35;27.63;;;23.57;;
5297;SDS011;14738;42.668;23.250;2023-11-22T13:33:00;29.20;;;24.50;;
5297;SDS011;14738;42.668;23.250;2023-11-22T13:35:28;27.83;;;23.70;;
5297;SDS011;14738;42.668;23.250;2023-11-22T13:37:58;29.90;;;22.37;;
5297;SDS011;14738;42.668;23.250;2023-11-22T13:40:25;34.60;;;23.63;;
5297;SDS011;14738;42.668;23.250;2023-11-22T13:42:55;27.70;;;22.93;;
5297;SDS011;14738;42.668;23.250;2023-11-22T13:45:20;29.00;;;23.87;;
5297;SDS011;14738;42.668;23.250;2023-11-22T13:50:16;28.63;;;23.47;;
5297;SDS011;14738;42.668;23.250;2023-11-22T13:52:49;26.33;;;19.60;;
5297;SDS011;14738;42.668;23.250;2023-11-22T13:55:20;23.47;;;19.97;;
5297;SDS011;14738;42.668;23.250;2023-11-22T13:57:49;23.93;;;18.50;;
5297;SDS011;14738;42.668;23.250;2023-11-22T14:00:15;25.20;;;19.63;;
5297;SDS011;14738;42.668;23.250;2023-11-22T14:02:51;30.97;;;25.57;;
5297;SDS011;14738;42.668;23.250;2023-11-22T14:05:24;29.13;;;24.50;;
5297;SDS011;14738;42.668;23.250;2023-11-22T14:07:51;31.70;;;24.60;;
5297;SDS011;14738;42.668;23.250;2023-11-22T14:10:17;27.07;;;22.73;;
5297;SDS011;14738;42.668;23.250;2023-11-22T14:12:43;27.60;;;23.20;;
5297;SDS011;14738;42.668;23.250;2023-11-22T14:15:10;29.77;;;26.40;;
5297;SDS011;14738;42.668;23.250;2023-11-22T14:17:36;32.23;;;26.77;;
5297;SDS011;14738;42.668;23.250;2023-11-22T14:20:07;37.53;;;28.37;;
5297;SDS011;14738;42.668;23.250;2023-11-22T14:22:36;42.43;;;35.00;;
5297;SDS011;14738;42.668;23.250;2023-11-22T14:25:04;49.40;;;37.63;;
5297;SDS011;14738;42.668;23.250;2023-11-22T14:27:32;40.27;;;34.00;;
5297;SDS011;14738;42.668;23.250;2023-11-22T14:29:59;28.40;;;23.80;;
5297;SDS011;14738;42.668;23.250;2023-11-22T14:32:25;66.17;;;33.63;;